createdAt,value
2019-01-26T00:00:18.497Z,0.90
2019-01-26T00:05:19.752Z,0.90
2019-01-26T00:10:21.013Z,1.00
2019-01-26T00:15:22.273Z,1.10
2019-01-26T00:20:23.530Z,1.10
2019-01-26T00:25:24.821Z,1.20
2019-01-26T00:30:26.059Z,1.30
2019-01-26T00:35:27.320Z,1.30
2019-01-26T00:40:28.762Z,1.40
2019-01-26T00:45:30.136Z,1.40
2019-01-26T00:50:31.526Z,1.40
2019-01-26T00:55:32.840Z,1.40
2019-01-26T01:00:34.282Z,1.40
2019-01-26T01:05:35.543Z,1.50
2019-01-26T01:10:36.810Z,1.50
2019-01-26T01:15:38.163Z,1.50
2019-01-26T01:20:39.417Z,1.50
2019-01-26T01:25:40.771Z,1.50
2019-01-26T01:30:42.123Z,1.50
2019-01-26T01:35:43.374Z,1.50
2019-01-26T01:40:44.605Z,1.50
2019-01-26T01:45:45.856Z,1.60
2019-01-26T01:50:47.192Z,1.60
2019-01-26T01:55:48.432Z,1.70
2019-01-26T02:00:49.974Z,1.70
2019-01-26T02:05:51.213Z,1.80
2019-01-26T02:10:52.471Z,1.80
2019-01-26T02:15:53.719Z,1.80
2019-01-26T02:20:55.062Z,1.80
2019-01-26T02:25:56.320Z,1.90
2019-01-26T02:30:57.848Z,1.90
2019-01-26T02:35:59.088Z,2.00
2019-01-26T02:41:00.343Z,2.00
2019-01-26T02:46:01.596Z,2.00
2019-01-26T02:51:02.851Z,2.00
2019-01-26T02:56:04.184Z,2.00
2019-01-26T03:01:05.431Z,2.00
2019-01-26T03:06:06.876Z,2.10
2019-01-26T03:11:08.148Z,2.10
2019-01-26T03:16:09.477Z,2.20
2019-01-26T03:21:10.724Z,2.30
2019-01-26T03:26:11.958Z,2.20
2019-01-26T03:31:13.195Z,2.20
2019-01-26T03:36:14.449Z,2.20
2019-01-26T03:41:15.684Z,2.20
2019-01-26T03:46:17.152Z,2.20
2019-01-26T03:51:18.410Z,2.30
2019-01-26T03:56:19.754Z,2.30
2019-01-26T04:01:21.282Z,2.30
2019-01-26T04:06:22.520Z,2.30
2019-01-26T04:11:23.758Z,2.30
2019-01-26T04:16:24.989Z,2.40
2019-01-26T04:21:26.234Z,2.40
2019-01-26T04:26:27.478Z,2.40
2019-01-26T04:31:28.821Z,2.40
2019-01-26T04:36:30.153Z,2.40
2019-01-26T04:41:31.408Z,2.50
2019-01-26T04:46:32.642Z,2.50
2019-01-26T04:51:33.885Z,2.60
2019-01-26T04:56:35.146Z,2.60
2019-01-26T05:01:36.375Z,2.50
2019-01-26T05:06:37.604Z,2.60
2019-01-26T05:11:38.851Z,2.70
2019-01-26T05:16:40.085Z,2.60
2019-01-26T05:21:41.328Z,2.70
2019-01-26T05:26:42.575Z,2.80
2019-01-26T05:31:43.813Z,2.80
2019-01-26T05:36:45.064Z,2.80
2019-01-26T05:41:46.302Z,2.70
2019-01-26T05:46:47.533Z,2.80
2019-01-26T05:51:48.776Z,2.80
2019-01-26T05:56:50.072Z,2.80
2019-01-26T06:01:51.286Z,2.80
2019-01-26T06:06:52.540Z,2.80
2019-01-26T06:11:53.780Z,2.80
2019-01-26T06:16:55.030Z,2.80
2019-01-26T06:21:56.299Z,2.80
2019-01-26T06:26:57.574Z,2.90
2019-01-26T06:31:58.821Z,2.80
2019-01-26T06:37:00.388Z,2.90
2019-01-26T06:42:01.837Z,2.90
2019-01-26T06:47:03.388Z,2.90
2019-01-26T06:52:05.044Z,2.90
2019-01-26T06:57:06.423Z,3.00
2019-01-26T07:02:07.667Z,3.00
2019-01-26T07:07:10.838Z,3.00
2019-01-26T07:12:12.228Z,3.10
2019-01-26T07:17:13.482Z,3.10
2019-01-26T07:22:14.730Z,3.20
2019-01-26T07:27:16.040Z,3.20
2019-01-26T07:32:17.281Z,3.20
2019-01-26T07:37:18.522Z,3.20
2019-01-26T07:42:19.780Z,3.30
2019-01-26T07:47:21.047Z,3.30
2019-01-26T07:52:22.328Z,3.30
2019-01-26T07:57:23.575Z,3.30
2019-01-26T08:02:24.820Z,3.60
2019-01-26T08:07:26.065Z,3.60
2019-01-26T08:12:27.300Z,3.50
2019-01-26T08:17:28.869Z,3.50
2019-01-26T08:22:30.130Z,3.60
2019-01-26T08:27:31.417Z,3.60
2019-01-26T08:32:32.666Z,3.50
2019-01-26T08:37:33.935Z,3.60
2019-01-26T08:42:35.490Z,3.80
2019-01-26T08:47:36.760Z,3.80
2019-01-26T08:52:38.154Z,3.90
2019-01-26T08:57:41.148Z,3.80
2019-01-26T09:02:53.342Z,3.80
2019-01-26T09:07:54.613Z,3.90
2019-01-26T09:12:55.876Z,4.00
2019-01-26T09:17:57.139Z,4.00
2019-01-26T09:22:58.387Z,4.20
2019-01-26T09:27:59.842Z,4.20
2019-01-26T09:33:01.222Z,4.30
2019-01-26T09:38:03.656Z,4.50
2019-01-26T09:43:05.340Z,4.60
2019-01-26T09:48:06.904Z,4.70
2019-01-26T09:53:08.295Z,4.60
2019-01-26T09:58:09.843Z,4.60
2019-01-26T10:03:11.090Z,4.70
2019-01-26T10:08:12.345Z,4.70
2019-01-26T10:13:13.608Z,4.60
2019-01-26T10:18:14.886Z,4.70
2019-01-26T10:23:16.159Z,4.80
2019-01-26T10:28:17.421Z,4.80
2019-01-26T10:33:18.940Z,4.80
2019-01-26T10:38:20.237Z,5.00
2019-01-26T10:43:41.593Z,5.10
2019-01-26T10:48:42.886Z,5.20
2019-01-26T10:53:44.125Z,5.20
2019-01-26T10:58:45.509Z,5.30
2019-01-26T11:03:46.838Z,5.40
2019-01-26T11:08:48.197Z,5.40
2019-01-26T11:13:50.087Z,5.30
2019-01-26T11:18:51.345Z,5.20
2019-01-26T11:23:52.601Z,5.20
2019-01-26T11:28:53.865Z,5.30
2019-01-26T11:33:55.128Z,5.30
2019-01-26T11:38:56.404Z,5.40
2019-01-26T11:43:57.659Z,5.50
2019-01-26T11:48:58.887Z,5.50
2019-01-26T11:54:00.387Z,5.60
2019-01-26T11:59:01.656Z,5.80
2019-01-26T12:04:05.108Z,5.80
2019-01-26T12:09:07.660Z,5.90
2019-01-26T12:14:08.927Z,6.00
2019-01-26T12:19:10.185Z,6.20
2019-01-26T12:24:12.081Z,6.30
2019-01-26T12:29:13.415Z,6.30
2019-01-26T12:34:14.722Z,6.40
2019-01-26T12:39:15.967Z,6.30
2019-01-26T12:44:17.217Z,6.30
2019-01-26T12:49:18.499Z,6.50
2019-01-26T12:54:19.778Z,6.60
2019-01-26T12:59:21.035Z,6.60
2019-01-26T13:04:22.316Z,6.70
2019-01-26T13:09:23.594Z,6.50
2019-01-26T13:14:24.828Z,6.50
2019-01-26T13:19:26.066Z,6.70
2019-01-26T13:24:27.293Z,6.70
2019-01-26T13:29:28.513Z,6.50
2019-01-26T13:34:29.782Z,6.40
2019-01-26T13:39:31.021Z,6.40
2019-01-26T13:44:32.319Z,6.40
2019-01-26T13:49:33.582Z,6.60
2019-01-26T13:54:34.827Z,6.60
2019-01-26T13:59:36.086Z,6.50
2019-01-26T14:04:38.773Z,6.60
2019-01-26T14:09:40.115Z,6.40
2019-01-26T14:14:41.388Z,6.20
2019-01-26T14:19:42.748Z,6.10
2019-01-26T14:24:44.072Z,5.90
2019-01-26T14:29:45.337Z,5.90
2019-01-26T14:34:47.480Z,5.90
2019-01-26T14:39:48.749Z,6.00
2019-01-26T14:44:50.009Z,6.00
2019-01-26T14:49:51.258Z,6.00
2019-01-26T14:54:53.534Z,5.80
2019-01-26T14:59:54.893Z,5.80
2019-01-26T15:04:56.140Z,5.70
2019-01-26T15:09:57.417Z,5.80
2019-01-26T15:14:58.665Z,5.90
2019-01-26T15:20:05.783Z,5.80
2019-01-26T15:25:06.885Z,5.70
2019-01-26T15:30:27.368Z,5.60
2019-01-26T15:35:29.058Z,5.60
2019-01-26T15:40:30.304Z,5.60
2019-01-26T15:45:38.591Z,5.60
2019-01-26T15:50:39.971Z,5.50
2019-01-26T15:55:41.363Z,5.50
2019-01-26T16:00:43.500Z,5.40
2019-01-26T16:05:44.768Z,5.30
2019-01-26T16:10:46.031Z,5.20
2019-01-26T16:15:47.282Z,5.10
2019-01-26T16:20:48.549Z,4.90
2019-01-26T16:25:49.939Z,4.90
2019-01-26T16:30:51.255Z,5.00
2019-01-26T16:35:52.520Z,4.90
2019-01-26T16:40:53.762Z,4.90
2019-01-26T16:45:55.001Z,4.80
2019-01-26T16:50:56.296Z,4.90
2019-01-26T16:55:57.574Z,5.10
2019-01-26T17:00:59.080Z,5.20
2019-01-26T17:06:00.287Z,5.20
2019-01-26T17:11:01.552Z,5.20
2019-01-26T17:16:03.036Z,5.00
2019-01-26T17:21:04.352Z,5.00
2019-01-26T17:26:05.731Z,4.90
2019-01-26T17:31:07.039Z,4.90
2019-01-26T17:36:08.326Z,5.00
2019-01-26T17:41:09.570Z,4.90
2019-01-26T17:46:10.911Z,4.90
2019-01-26T17:51:12.200Z,5.00
2019-01-26T17:56:13.457Z,5.00
2019-01-26T18:01:14.723Z,4.90
2019-01-26T18:06:16.028Z,4.90
2019-01-26T18:11:17.430Z,5.10
2019-01-26T18:16:18.693Z,5.00
2019-01-26T18:21:19.995Z,4.90
2019-01-26T18:26:21.355Z,4.90
2019-01-26T18:31:22.684Z,4.80
2019-01-26T18:36:24.146Z,4.70
2019-01-26T18:41:25.420Z,4.80
2019-01-26T18:46:26.690Z,4.80
2019-01-26T18:51:27.999Z,4.70
2019-01-26T18:56:34.375Z,4.70
2019-01-26T19:01:35.834Z,4.80
2019-01-26T19:06:37.109Z,4.70
2019-01-26T19:11:38.407Z,4.70
2019-01-26T19:16:39.694Z,4.70
2019-01-26T19:21:41.070Z,4.80
2019-01-26T19:26:42.343Z,4.80
2019-01-26T19:31:43.749Z,4.90
2019-01-26T19:36:45.233Z,4.90
2019-01-26T19:41:46.515Z,4.90
2019-01-26T19:46:47.893Z,4.90
2019-01-26T19:51:49.150Z,4.90
2019-01-26T19:56:50.674Z,5.00
2019-01-26T20:01:52.548Z,5.00
2019-01-26T20:06:54.083Z,4.90
2019-01-26T20:11:55.465Z,4.90
2019-01-26T20:16:56.727Z,4.80
2019-01-26T20:21:57.977Z,4.80
2019-01-26T20:26:59.241Z,4.80
2019-01-26T20:32:00.644Z,4.80
2019-01-26T20:37:02.003Z,4.80
2019-01-26T20:42:03.671Z,4.80
2019-01-26T20:47:05.134Z,4.80
2019-01-26T20:52:06.704Z,4.90
2019-01-26T20:57:08.057Z,4.90
2019-01-26T21:02:09.335Z,5.00
2019-01-26T21:07:12.507Z,5.00
2019-01-26T21:12:14.557Z,4.90
2019-01-26T21:17:15.872Z,4.90
2019-01-26T21:22:17.177Z,4.90
2019-01-26T21:27:18.418Z,4.80
2019-01-26T21:32:19.703Z,4.80
2019-01-26T21:37:21.178Z,4.70
2019-01-26T21:42:22.557Z,4.70
2019-01-26T21:47:23.910Z,4.60
2019-01-26T21:52:25.204Z,4.70
2019-01-26T21:57:26.514Z,4.70
2019-01-26T22:02:27.771Z,4.60
2019-01-26T22:07:29.149Z,4.50
2019-01-26T22:12:30.520Z,4.50
2019-01-26T22:17:31.896Z,4.50
2019-01-26T22:22:33.158Z,4.40
2019-01-26T22:27:34.521Z,4.40
2019-01-26T22:32:35.847Z,4.40
2019-01-26T22:37:37.349Z,4.40
2019-01-26T22:42:38.646Z,4.50
2019-01-26T22:47:39.942Z,4.50
2019-01-26T22:52:41.518Z,4.50
2019-01-26T22:57:43.307Z,4.50
2019-01-26T23:02:44.866Z,4.50
2019-01-26T23:07:46.328Z,4.50
2019-01-26T23:12:53.324Z,4.60
2019-01-26T23:18:27.429Z,4.70
2019-01-26T23:23:39.824Z,4.70
2019-01-26T23:28:49.939Z,4.80
2019-01-26T23:33:52.026Z,4.80
2019-01-26T23:38:53.378Z,4.80
2019-01-26T23:43:54.645Z,4.80
2019-01-26T23:48:55.879Z,4.80
2019-01-26T23:53:57.149Z,4.80
2019-01-26T23:58:58.428Z,4.80
